sensor_id;sensor_type;location;lat;lon;timestamp;P1;durP1;ratioP1;P2;durP2;ratioP2
6269;SDS011;3168;51.684;6.954;2023-10-08T00:00:02;5.47;;;4.30;;
6269;SDS011;3168;51.684;6.954;2023-10-08T00:02:28;3.80;;;2.57;;
6269;SDS011;3168;51.684;6.954;2023-10-08T00:04:54;3.80;;;2.93;;
6269;SDS011;3168;51.684;6.954;2023-10-08T00:07:20;3.47;;;2.90;;
6269;SDS011;3168;51.684;6.954;2023-10-08T00:09:48;3.00;;;2.80;;
6269;SDS011;3168;51.684;6.954;2023-10-08T00:12:13;3.90;;;3.60;;
6269;SDS011;3168;51.684;6.954;2023-10-08T00:14:39;5.23;;;3.10;;
6269;SDS011;3168;51.684;6.954;2023-10-08T00:17:05;5.20;;;2.53;;
6269;SDS011;3168;51.684;6.954;2023-10-08T00:19:31;8.83;;;3.53;;
6269;SDS011;3168;51.684;6.954;2023-10-08T00:21:57;2.83;;;2.60;;
6269;SDS011;3168;51.684;6.954;2023-10-08T00:24:22;3.60;;;2.70;;
6269;SDS011;3168;51.684;6.954;2023-10-08T00:26:48;3.40;;;3.10;;
6269;SDS011;3168;51.684;6.954;2023-10-08T00:29:15;3.70;;;2.60;;
6269;SDS011;3168;51.684;6.954;2023-10-08T00:31:43;4.40;;;2.83;;
6269;SDS011;3168;51.684;6.954;2023-10-08T00:34:08;4.97;;;3.80;;
6269;SDS011;3168;51.684;6.954;2023-10-08T00:36:34;3.23;;;3.03;;
6269;SDS011;3168;51.684;6.954;2023-10-08T00:39:00;2.60;;;2.50;;
6269;SDS011;3168;51.684;6.954;2023-10-08T00:41:26;4.07;;;3.30;;
6269;SDS011;3168;51.684;6.954;2023-10-08T00:43:54;2.83;;;2.57;;
6269;SDS011;3168;51.684;6.954;2023-10-08T00:46:19;5.33;;;3.00;;
6269;SDS011;3168;51.684;6.954;2023-10-08T00:48:49;3.13;;;3.00;;
6269;SDS011;3168;51.684;6.954;2023-10-08T00:51:15;4.40;;;3.50;;
6269;SDS011;3168;51.684;6.954;2023-10-08T00:54:02;3.63;;;2.97;;
6269;SDS011;3168;51.684;6.954;2023-10-08T00:56:32;4.43;;;3.93;;
6269;SDS011;3168;51.684;6.954;2023-10-08T00:59:03;3.37;;;3.03;;
6269;SDS011;3168;51.684;6.954;2023-10-08T01:01:29;4.13;;;3.77;;
6269;SDS011;3168;51.684;6.954;2023-10-08T01:03:55;4.13;;;2.97;;
6269;SDS011;3168;51.684;6.954;2023-10-08T01:06:21;9.57;;;3.43;;
6269;SDS011;3168;51.684;6.954;2023-10-08T01:08:47;6.80;;;3.77;;
6269;SDS011;3168;51.684;6.954;2023-10-08T01:11:16;7.53;;;4.53;;
6269;SDS011;3168;51.684;6.954;2023-10-08T01:14:01;2.90;;;2.80;;
6269;SDS011;3168;51.684;6.954;2023-10-08T01:16:26;8.40;;;3.60;;
6269;SDS011;3168;51.684;6.954;2023-10-08T01:18:52;7.10;;;3.47;;
6269;SDS011;3168;51.684;6.954;2023-10-08T01:21:18;4.55;;;3.45;;
6269;SDS011;3168;51.684;6.954;2023-10-08T01:23:44;4.50;;;3.63;;
6269;SDS011;3168;51.684;6.954;2023-10-08T01:26:10;5.57;;;3.57;;
6269;SDS011;3168;51.684;6.954;2023-10-08T01:28:36;7.43;;;4.43;;
6269;SDS011;3168;51.684;6.954;2023-10-08T01:31:01;3.50;;;3.30;;
6269;SDS011;3168;51.684;6.954;2023-10-08T01:33:28;9.83;;;3.30;;
6269;SDS011;3168;51.684;6.954;2023-10-08T01:35:54;4.10;;;3.23;;
6269;SDS011;3168;51.684;6.954;2023-10-08T01:38:19;6.33;;;3.57;;
6269;SDS011;3168;51.684;6.954;2023-10-08T01:40:51;4.57;;;2.77;;
6269;SDS011;3168;51.684;6.954;2023-10-08T01:43:17;4.23;;;2.50;;
6269;SDS011;3168;51.684;6.954;2023-10-08T01:45:43;3.30;;;2.40;;
6269;SDS011;3168;51.684;6.954;2023-10-08T01:48:08;3.10;;;2.87;;
6269;SDS011;3168;51.684;6.954;2023-10-08T01:50:36;3.20;;;3.00;;
6269;SDS011;3168;51.684;6.954;2023-10-08T01:53:01;11.90;;;2.83;;
6269;SDS011;3168;51.684;6.954;2023-10-08T01:55:27;3.93;;;3.10;;
6269;SDS011;3168;51.684;6.954;2023-10-08T01:57:52;3.00;;;2.50;;
6269;SDS011;3168;51.684;6.954;2023-10-08T02:00:19;2.97;;;2.80;;
6269;SDS011;3168;51.684;6.954;2023-10-08T02:02:46;13.10;;;4.10;;
6269;SDS011;3168;51.684;6.954;2023-10-08T02:05:12;3.37;;;3.10;;
6269;SDS011;3168;51.684;6.954;2023-10-08T02:07:38;3.63;;;3.33;;
6269;SDS011;3168;51.684;6.954;2023-10-08T02:10:03;4.60;;;4.40;;
6269;SDS011;3168;51.684;6.954;2023-10-08T02:12:30;4.67;;;4.27;;
6269;SDS011;3168;51.684;6.954;2023-10-08T02:14:55;3.90;;;2.07;;
6269;SDS011;3168;51.684;6.954;2023-10-08T02:17:21;3.43;;;2.93;;
6269;SDS011;3168;51.684;6.954;2023-10-08T02:19:47;9.00;;;3.53;;
6269;SDS011;3168;51.684;6.954;2023-10-08T02:22:13;5.12;;;3.15;;
6269;SDS011;3168;51.684;6.954;2023-10-08T02:24:39;7.93;;;5.10;;
6269;SDS011;3168;51.684;6.954;2023-10-08T02:27:05;3.00;;;2.80;;
6269;SDS011;3168;51.684;6.954;2023-10-08T02:29:30;9.33;;;3.90;;
6269;SDS011;3168;51.684;6.954;2023-10-08T02:31:57;2.47;;;2.37;;
6269;SDS011;3168;51.684;6.954;2023-10-08T02:34:22;4.50;;;4.10;;
6269;SDS011;3168;51.684;6.954;2023-10-08T02:36:48;4.03;;;3.77;;
6269;SDS011;3168;51.684;6.954;2023-10-08T02:39:14;5.60;;;3.50;;
6269;SDS011;3168;51.684;6.954;2023-10-08T02:41:42;5.50;;;2.60;;
6269;SDS011;3168;51.684;6.954;2023-10-08T02:44:08;3.67;;;3.37;;
6269;SDS011;3168;51.684;6.954;2023-10-08T02:46:33;5.20;;;3.37;;
6269;SDS011;3168;51.684;6.954;2023-10-08T02:48:59;6.43;;;3.17;;
6269;SDS011;3168;51.684;6.954;2023-10-08T02:51:25;3.30;;;2.87;;
6269;SDS011;3168;51.684;6.954;2023-10-08T02:53:51;4.20;;;3.27;;
6269;SDS011;3168;51.684;6.954;2023-10-08T02:56:17;9.63;;;3.03;;
6269;SDS011;3168;51.684;6.954;2023-10-08T02:58:43;3.00;;;2.80;;
6269;SDS011;3168;51.684;6.954;2023-10-08T03:01:09;3.43;;;3.17;;
6269;SDS011;3168;51.684;6.954;2023-10-08T03:03:35;3.73;;;3.43;;
6269;SDS011;3168;51.684;6.954;2023-10-08T03:06:01;13.00;;;3.83;;
6269;SDS011;3168;51.684;6.954;2023-10-08T03:08:27;5.80;;;3.23;;
6269;SDS011;3168;51.684;6.954;2023-10-08T03:10:53;3.30;;;3.10;;
6269;SDS011;3168;51.684;6.954;2023-10-08T03:13:21;3.30;;;3.10;;
6269;SDS011;3168;51.684;6.954;2023-10-08T03:15:47;3.67;;;3.33;;
6269;SDS011;3168;51.684;6.954;2023-10-08T03:18:19;5.17;;;3.83;;
6269;SDS011;3168;51.684;6.954;2023-10-08T03:20:45;9.40;;;3.97;;
6269;SDS011;3168;51.684;6.954;2023-10-08T03:23:12;5.20;;;3.67;;
6269;SDS011;3168;51.684;6.954;2023-10-08T03:25:39;3.57;;;3.27;;
6269;SDS011;3168;51.684;6.954;2023-10-08T03:28:05;3.40;;;3.20;;
6269;SDS011;3168;51.684;6.954;2023-10-08T03:30:31;3.47;;;2.97;;
6269;SDS011;3168;51.684;6.954;2023-10-08T03:32:56;4.17;;;2.80;;
6269;SDS011;3168;51.684;6.954;2023-10-08T03:35:22;3.10;;;3.00;;
6269;SDS011;3168;51.684;6.954;2023-10-08T03:37:48;7.07;;;3.50;;
6269;SDS011;3168;51.684;6.954;2023-10-08T03:40:14;3.63;;;3.10;;
6269;SDS011;3168;51.684;6.954;2023-10-08T03:42:46;4.60;;;3.43;;
6269;SDS011;3168;51.684;6.954;2023-10-08T03:45:12;6.10;;;2.93;;
6269;SDS011;3168;51.684;6.954;2023-10-08T03:47:38;4.50;;;2.83;;
6269;SDS011;3168;51.684;6.954;2023-10-08T03:50:05;11.40;;;3.63;;
6269;SDS011;3168;51.684;6.954;2023-10-08T03:52:31;2.60;;;2.50;;
6269;SDS011;3168;51.684;6.954;2023-10-08T03:54:57;3.00;;;2.80;;
6269;SDS011;3168;51.684;6.954;2023-10-08T03:57:28;3.07;;;2.73;;
6269;SDS011;3168;51.684;6.954;2023-10-08T03:59:54;8.00;;;3.30;;
6269;SDS011;3168;51.684;6.954;2023-10-08T04:02:20;6.67;;;3.03;;
6269;SDS011;3168;51.684;6.954;2023-10-08T04:04:48;3.73;;;2.90;;
6269;SDS011;3168;51.684;6.954;2023-10-08T04:07:16;2.80;;;2.70;;
6269;SDS011;3168;51.684;6.954;2023-10-08T04:09:57;11.17;;;3.57;;
6269;SDS011;3168;51.684;6.954;2023-10-08T04:12:35;10.80;;;3.80;;
6269;SDS011;3168;51.684;6.954;2023-10-08T04:15:01;3.53;;;2.57;;
6269;SDS011;3168;51.684;6.954;2023-10-08T04:17:26;8.60;;;4.00;;
6269;SDS011;3168;51.684;6.954;2023-10-08T04:19:53;4.73;;;3.50;;
6269;SDS011;3168;51.684;6.954;2023-10-08T04:22:18;3.07;;;2.87;;
6269;SDS011;3168;51.684;6.954;2023-10-08T04:24:44;4.50;;;3.20;;
6269;SDS011;3168;51.684;6.954;2023-10-08T04:27:10;5.77;;;4.17;;
6269;SDS011;3168;51.684;6.954;2023-10-08T04:29:36;3.00;;;2.87;;
6269;SDS011;3168;51.684;6.954;2023-10-08T04:32:02;4.10;;;3.47;;
6269;SDS011;3168;51.684;6.954;2023-10-08T04:34:33;3.17;;;2.97;;
6269;SDS011;3168;51.684;6.954;2023-10-08T04:36:58;2.90;;;2.70;;
6269;SDS011;3168;51.684;6.954;2023-10-08T04:39:24;3.40;;;3.17;;
6269;SDS011;3168;51.684;6.954;2023-10-08T04:41:52;8.43;;;3.30;;
6269;SDS011;3168;51.684;6.954;2023-10-08T04:44:19;2.27;;;2.17;;
6269;SDS011;3168;51.684;6.954;2023-10-08T04:46:46;3.93;;;3.63;;
6269;SDS011;3168;51.684;6.954;2023-10-08T04:49:12;7.33;;;3.80;;
6269;SDS011;3168;51.684;6.954;2023-10-08T04:51:38;7.80;;;4.00;;
6269;SDS011;3168;51.684;6.954;2023-10-08T04:54:03;6.43;;;3.43;;
6269;SDS011;3168;51.684;6.954;2023-10-08T04:56:29;13.03;;;3.83;;
6269;SDS011;3168;51.684;6.954;2023-10-08T04:58:55;6.00;;;3.17;;
6269;SDS011;3168;51.684;6.954;2023-10-08T05:01:21;4.47;;;3.90;;
6269;SDS011;3168;51.684;6.954;2023-10-08T05:03:48;3.23;;;3.00;;
6269;SDS011;3168;51.684;6.954;2023-10-08T05:06:34;3.97;;;3.77;;
6269;SDS011;3168;51.684;6.954;2023-10-08T05:09:15;7.10;;;4.40;;
6269;SDS011;3168;51.684;6.954;2023-10-08T05:11:54;4.27;;;3.87;;
6269;SDS011;3168;51.684;6.954;2023-10-08T05:14:24;7.00;;;3.50;;
6269;SDS011;3168;51.684;6.954;2023-10-08T05:16:55;5.93;;;4.73;;
6269;SDS011;3168;51.684;6.954;2023-10-08T05:19:26;4.13;;;3.60;;
6269;SDS011;3168;51.684;6.954;2023-10-08T05:21:57;4.40;;;3.50;;
6269;SDS011;3168;51.684;6.954;2023-10-08T05:24:27;4.28;;;3.70;;
6269;SDS011;3168;51.684;6.954;2023-10-08T05:26:53;8.43;;;3.90;;
6269;SDS011;3168;51.684;6.954;2023-10-08T05:29:18;9.70;;;3.83;;
6269;SDS011;3168;51.684;6.954;2023-10-08T05:31:50;4.83;;;3.93;;
6269;SDS011;3168;51.684;6.954;2023-10-08T05:34:16;5.17;;;3.47;;
6269;SDS011;3168;51.684;6.954;2023-10-08T05:36:44;6.93;;;4.50;;
6269;SDS011;3168;51.684;6.954;2023-10-08T05:39:16;4.70;;;3.67;;
6269;SDS011;3168;51.684;6.954;2023-10-08T05:41:49;5.23;;;4.20;;
6269;SDS011;3168;51.684;6.954;2023-10-08T05:44:17;6.37;;;2.97;;
6269;SDS011;3168;51.684;6.954;2023-10-08T05:46:51;12.83;;;4.30;;
6269;SDS011;3168;51.684;6.954;2023-10-08T05:49:33;9.03;;;3.83;;
6269;SDS011;3168;51.684;6.954;2023-10-08T05:52:02;20.03;;;4.70;;
6269;SDS011;3168;51.684;6.954;2023-10-08T05:54:35;7.27;;;4.20;;
6269;SDS011;3168;51.684;6.954;2023-10-08T05:57:02;3.90;;;3.60;;
6269;SDS011;3168;51.684;6.954;2023-10-08T05:59:33;5.27;;;3.03;;
6269;SDS011;3168;51.684;6.954;2023-10-08T06:01:59;10.50;;;4.50;;
6269;SDS011;3168;51.684;6.954;2023-10-08T06:04:25;7.27;;;3.80;;
6269;SDS011;3168;51.684;6.954;2023-10-08T06:06:56;5.53;;;5.00;;
6269;SDS011;3168;51.684;6.954;2023-10-08T06:09:23;5.27;;;4.47;;
6269;SDS011;3168;51.684;6.954;2023-10-08T06:11:49;7.73;;;3.97;;
6269;SDS011;3168;51.684;6.954;2023-10-08T06:14:22;8.37;;;4.80;;
6269;SDS011;3168;51.684;6.954;2023-10-08T06:16:52;3.70;;;3.40;;
6269;SDS011;3168;51.684;6.954;2023-10-08T06:19:18;11.00;;;3.73;;
6269;SDS011;3168;51.684;6.954;2023-10-08T06:21:44;6.70;;;4.70;;
6269;SDS011;3168;51.684;6.954;2023-10-08T06:24:09;9.20;;;4.00;;
6269;SDS011;3168;51.684;6.954;2023-10-08T06:26:36;6.00;;;4.63;;
6269;SDS011;3168;51.684;6.954;2023-10-08T06:29:02;5.17;;;4.50;;
6269;SDS011;3168;51.684;6.954;2023-10-08T06:31:28;4.97;;;3.93;;
6269;SDS011;3168;51.684;6.954;2023-10-08T06:33:54;7.67;;;4.17;;
6269;SDS011;3168;51.684;6.954;2023-10-08T06:36:20;6.43;;;4.20;;
6269;SDS011;3168;51.684;6.954;2023-10-08T06:38:46;2.37;;;2.27;;
6269;SDS011;3168;51.684;6.954;2023-10-08T06:41:12;4.00;;;2.83;;
6269;SDS011;3168;51.684;6.954;2023-10-08T06:43:41;6.67;;;2.50;;
6269;SDS011;3168;51.684;6.954;2023-10-08T06:46:09;2.50;;;2.40;;
6269;SDS011;3168;51.684;6.954;2023-10-08T06:48:34;4.53;;;1.93;;
6269;SDS011;3168;51.684;6.954;2023-10-08T06:51:00;2.90;;;2.70;;
6269;SDS011;3168;51.684;6.954;2023-10-08T06:53:26;4.13;;;2.83;;
6269;SDS011;3168;51.684;6.954;2023-10-08T06:55:52;2.67;;;2.47;;
6269;SDS011;3168;51.684;6.954;2023-10-08T06:58:21;3.03;;;2.83;;
6269;SDS011;3168;51.684;6.954;2023-10-08T07:00:47;1.93;;;1.83;;
6269;SDS011;3168;51.684;6.954;2023-10-08T07:03:13;2.07;;;1.87;;
6269;SDS011;3168;51.684;6.954;2023-10-08T07:05:39;5.63;;;2.00;;
6269;SDS011;3168;51.684;6.954;2023-10-08T07:08:05;1.60;;;1.50;;
6269;SDS011;3168;51.684;6.954;2023-10-08T07:10:31;2.00;;;1.90;;
6269;SDS011;3168;51.684;6.954;2023-10-08T07:12:57;1.30;;;1.30;;
6269;SDS011;3168;51.684;6.954;2023-10-08T07:15:23;1.60;;;1.60;;
6269;SDS011;3168;51.684;6.954;2023-10-08T07:17:49;3.40;;;1.23;;
6269;SDS011;3168;51.684;6.954;2023-10-08T07:20:14;1.57;;;1.47;;
6269;SDS011;3168;51.684;6.954;2023-10-08T07:22:40;0.97;;;0.97;;
6269;SDS011;3168;51.684;6.954;2023-10-08T07:25:06;1.27;;;1.17;;
6269;SDS011;3168;51.684;6.954;2023-10-08T07:27:33;1.77;;;1.10;;
6269;SDS011;3168;51.684;6.954;2023-10-08T07:29:59;2.80;;;1.30;;
6269;SDS011;3168;51.684;6.954;2023-10-08T07:32:25;1.00;;;1.00;;
6269;SDS011;3168;51.684;6.954;2023-10-08T07:34:50;0.90;;;0.90;;
6269;SDS011;3168;51.684;6.954;2023-10-08T07:37:16;1.33;;;1.23;;
6269;SDS011;3168;51.684;6.954;2023-10-08T07:39:42;2.87;;;1.40;;
6269;SDS011;3168;51.684;6.954;2023-10-08T07:42:10;1.50;;;1.50;;
6269;SDS011;3168;51.684;6.954;2023-10-08T07:44:36;1.43;;;1.43;;
6269;SDS011;3168;51.684;6.954;2023-10-08T07:47:02;0.93;;;0.93;;
6269;SDS011;3168;51.684;6.954;2023-10-08T07:49:31;0.90;;;0.90;;
6269;SDS011;3168;51.684;6.954;2023-10-08T07:51:57;1.70;;;0.60;;
6269;SDS011;3168;51.684;6.954;2023-10-08T07:54:23;0.90;;;0.90;;
6269;SDS011;3168;51.684;6.954;2023-10-08T07:56:49;0.87;;;0.87;;
6269;SDS011;3168;51.684;6.954;2023-10-08T07:59:15;0.73;;;0.73;;
6269;SDS011;3168;51.684;6.954;2023-10-08T08:01:41;0.90;;;0.90;;
6269;SDS011;3168;51.684;6.954;2023-10-08T08:04:09;0.70;;;0.70;;
6269;SDS011;3168;51.684;6.954;2023-10-08T08:06:35;0.70;;;0.70;;
6269;SDS011;3168;51.684;6.954;2023-10-08T08:09:01;0.60;;;0.60;;
6269;SDS011;3168;51.684;6.954;2023-10-08T08:11:27;0.80;;;0.80;;
6269;SDS011;3168;51.684;6.954;2023-10-08T08:13:53;0.70;;;0.70;;
6269;SDS011;3168;51.684;6.954;2023-10-08T08:16:19;0.73;;;0.73;;
6269;SDS011;3168;51.684;6.954;2023-10-08T08:18:48;0.70;;;0.70;;
6269;SDS011;3168;51.684;6.954;2023-10-08T08:21:12;5.70;;;1.00;;
6269;SDS011;3168;51.684;6.954;2023-10-08T08:23:38;0.77;;;0.77;;
6269;SDS011;3168;51.684;6.954;2023-10-08T08:26:04;0.73;;;0.73;;
6269;SDS011;3168;51.684;6.954;2023-10-08T08:28:32;1.27;;;1.17;;
6269;SDS011;3168;51.684;6.954;2023-10-08T08:31:03;0.60;;;0.60;;
6269;SDS011;3168;51.684;6.954;2023-10-08T08:33:28;0.70;;;0.70;;
6269;SDS011;3168;51.684;6.954;2023-10-08T08:35:58;1.23;;;0.50;;
6269;SDS011;3168;51.684;6.954;2023-10-08T08:38:23;0.70;;;0.70;;
6269;SDS011;3168;51.684;6.954;2023-10-08T08:40:49;0.90;;;0.90;;
6269;SDS011;3168;51.684;6.954;2023-10-08T08:43:15;0.60;;;0.60;;
6269;SDS011;3168;51.684;6.954;2023-10-08T08:45:41;0.70;;;0.70;;
6269;SDS011;3168;51.684;6.954;2023-10-08T08:48:07;0.90;;;0.90;;
6269;SDS011;3168;51.684;6.954;2023-10-08T08:50:33;0.80;;;0.80;;
6269;SDS011;3168;51.684;6.954;2023-10-08T08:52:59;0.67;;;0.67;;
6269;SDS011;3168;51.684;6.954;2023-10-08T08:55:25;2.67;;;0.80;;
6269;SDS011;3168;51.684;6.954;2023-10-08T08:57:52;1.20;;;1.10;;
6269;SDS011;3168;51.684;6.954;2023-10-08T09:00:18;0.73;;;0.73;;
6269;SDS011;3168;51.684;6.954;2023-10-08T09:02:44;0.87;;;0.87;;
6269;SDS011;3168;51.684;6.954;2023-10-08T09:05:09;1.57;;;0.80;;
6269;SDS011;3168;51.684;6.954;2023-10-08T09:10:22;0.67;;;0.67;;
6269;SDS011;3168;51.684;6.954;2023-10-08T09:12:47;0.90;;;0.90;;
6269;SDS011;3168;51.684;6.954;2023-10-08T09:15:13;0.70;;;0.70;;
6269;SDS011;3168;51.684;6.954;2023-10-08T09:17:39;0.60;;;0.60;;
6269;SDS011;3168;51.684;6.954;2023-10-08T09:20:05;0.70;;;0.67;;
6269;SDS011;3168;51.684;6.954;2023-10-08T09:22:32;0.60;;;0.60;;
6269;SDS011;3168;51.684;6.954;2023-10-08T09:24:58;0.67;;;0.67;;
6269;SDS011;3168;51.684;6.954;2023-10-08T09:27:23;0.50;;;0.50;;
6269;SDS011;3168;51.684;6.954;2023-10-08T09:29:49;0.77;;;0.77;;
6269;SDS011;3168;51.684;6.954;2023-10-08T09:32:15;0.60;;;0.60;;
6269;SDS011;3168;51.684;6.954;2023-10-08T09:34:41;0.70;;;0.70;;
6269;SDS011;3168;51.684;6.954;2023-10-08T09:37:07;0.70;;;0.70;;
6269;SDS011;3168;51.684;6.954;2023-10-08T09:39:33;0.73;;;0.73;;
6269;SDS011;3168;51.684;6.954;2023-10-08T09:42:00;0.70;;;0.70;;
6269;SDS011;3168;51.684;6.954;2023-10-08T09:44:25;0.90;;;0.87;;
6269;SDS011;3168;51.684;6.954;2023-10-08T09:46:53;0.60;;;0.60;;
6269;SDS011;3168;51.684;6.954;2023-10-08T09:49:17;1.13;;;0.60;;
6269;SDS011;3168;51.684;6.954;2023-10-08T09:51:43;5.43;;;1.37;;
6269;SDS011;3168;51.684;6.954;2023-10-08T09:54:10;0.70;;;0.70;;
6269;SDS011;3168;51.684;6.954;2023-10-08T09:56:35;1.20;;;1.10;;
6269;SDS011;3168;51.684;6.954;2023-10-08T09:59:01;1.73;;;0.90;;
6269;SDS011;3168;51.684;6.954;2023-10-08T10:01:27;1.67;;;1.57;;
6269;SDS011;3168;51.684;6.954;2023-10-08T10:03:52;1.43;;;1.33;;
6269;SDS011;3168;51.684;6.954;2023-10-08T10:06:18;7.13;;;1.47;;
6269;SDS011;3168;51.684;6.954;2023-10-08T10:08:44;2.33;;;2.13;;
6269;SDS011;3168;51.684;6.954;2023-10-08T10:11:10;1.53;;;1.03;;
6269;SDS011;3168;51.684;6.954;2023-10-08T10:13:43;1.00;;;1.00;;
6269;SDS011;3168;51.684;6.954;2023-10-08T10:16:10;2.00;;;0.90;;
6269;SDS011;3168;51.684;6.954;2023-10-08T10:18:36;11.43;;;1.40;;
6269;SDS011;3168;51.684;6.954;2023-10-08T10:23:49;1.03;;;0.93;;
6269;SDS011;3168;51.684;6.954;2023-10-08T10:31:47;1.23;;;0.80;;
6269;SDS011;3168;51.684;6.954;2023-10-08T10:34:13;3.37;;;1.37;;
6269;SDS011;3168;51.684;6.954;2023-10-08T10:36:39;1.00;;;1.00;;
6269;SDS011;3168;51.684;6.954;2023-10-08T10:39:06;1.83;;;1.00;;
6269;SDS011;3168;51.684;6.954;2023-10-08T10:41:33;9.97;;;1.00;;
6269;SDS011;3168;51.684;6.954;2023-10-08T10:43:59;0.80;;;0.80;;
6269;SDS011;3168;51.684;6.954;2023-10-08T10:46:24;0.70;;;0.70;;
6269;SDS011;3168;51.684;6.954;2023-10-08T10:48:55;3.37;;;1.00;;
6269;SDS011;3168;51.684;6.954;2023-10-08T10:51:23;1.47;;;1.20;;
6269;SDS011;3168;51.684;6.954;2023-10-08T10:53:48;1.20;;;1.20;;
6269;SDS011;3168;51.684;6.954;2023-10-08T10:56:20;2.50;;;0.80;;
6269;SDS011;3168;51.684;6.954;2023-10-08T10:58:47;1.23;;;0.63;;
6269;SDS011;3168;51.684;6.954;2023-10-08T11:01:13;5.37;;;0.90;;
6269;SDS011;3168;51.684;6.954;2023-10-08T11:03:46;1.47;;;1.03;;
6269;SDS011;3168;51.684;6.954;2023-10-08T11:06:11;3.13;;;0.70;;
6269;SDS011;3168;51.684;6.954;2023-10-08T11:08:37;1.03;;;1.03;;
6269;SDS011;3168;51.684;6.954;2023-10-08T11:11:04;0.87;;;0.87;;
6269;SDS011;3168;51.684;6.954;2023-10-08T11:13:32;4.40;;;0.90;;
6269;SDS011;3168;51.684;6.954;2023-10-08T11:15:56;0.90;;;0.90;;
6269;SDS011;3168;51.684;6.954;2023-10-08T11:18:23;1.00;;;0.90;;
6269;SDS011;3168;51.684;6.954;2023-10-08T11:20:48;0.90;;;0.90;;
6269;SDS011;3168;51.684;6.954;2023-10-08T11:25:53;0.60;;;0.60;;
6269;SDS011;3168;51.684;6.954;2023-10-08T11:28:19;1.67;;;0.80;;
6269;SDS011;3168;51.684;6.954;2023-10-08T11:30:45;0.87;;;0.80;;
6269;SDS011;3168;51.684;6.954;2023-10-08T11:33:11;0.73;;;0.73;;
6269;SDS011;3168;51.684;6.954;2023-10-08T11:35:37;4.10;;;0.90;;
6269;SDS011;3168;51.684;6.954;2023-10-08T11:38:03;0.73;;;0.73;;
6269;SDS011;3168;51.684;6.954;2023-10-08T11:40:29;0.80;;;0.80;;
6269;SDS011;3168;51.684;6.954;2023-10-08T11:42:55;1.07;;;1.07;;
6269;SDS011;3168;51.684;6.954;2023-10-08T11:45:20;0.77;;;0.77;;
6269;SDS011;3168;51.684;6.954;2023-10-08T11:47:47;0.90;;;0.90;;
6269;SDS011;3168;51.684;6.954;2023-10-08T11:50:15;3.27;;;1.10;;
6269;SDS011;3168;51.684;6.954;2023-10-08T11:52:43;2.00;;;1.40;;
6269;SDS011;3168;51.684;6.954;2023-10-08T11:55:09;2.77;;;1.00;;
6269;SDS011;3168;51.684;6.954;2023-10-08T11:57:35;1.17;;;1.03;;
6269;SDS011;3168;51.684;6.954;2023-10-08T12:00:02;1.27;;;1.27;;
6269;SDS011;3168;51.684;6.954;2023-10-08T12:02:27;1.10;;;1.10;;
6269;SDS011;3168;51.684;6.954;2023-10-08T12:04:53;12.47;;;1.87;;
6269;SDS011;3168;51.684;6.954;2023-10-08T12:07:19;2.70;;;1.70;;
6269;SDS011;3168;51.684;6.954;2023-10-08T12:09:44;1.10;;;1.10;;
6269;SDS011;3168;51.684;6.954;2023-10-08T12:12:10;1.47;;;1.27;;
6269;SDS011;3168;51.684;6.954;2023-10-08T12:14:36;6.17;;;1.43;;
6269;SDS011;3168;51.684;6.954;2023-10-08T12:17:02;3.20;;;1.60;;
6269;SDS011;3168;51.684;6.954;2023-10-08T12:19:28;4.87;;;1.83;;
6269;SDS011;3168;51.684;6.954;2023-10-08T12:21:54;2.23;;;2.13;;
6269;SDS011;3168;51.684;6.954;2023-10-08T12:24:20;1.87;;;1.47;;
6269;SDS011;3168;51.684;6.954;2023-10-08T12:26:46;2.00;;;1.83;;
6269;SDS011;3168;51.684;6.954;2023-10-08T12:29:13;1.60;;;1.60;;
6269;SDS011;3168;51.684;6.954;2023-10-08T12:31:39;1.63;;;1.53;;
6269;SDS011;3168;51.684;6.954;2023-10-08T12:34:05;1.73;;;1.63;;
6269;SDS011;3168;51.684;6.954;2023-10-08T12:36:31;1.40;;;1.30;;
6269;SDS011;3168;51.684;6.954;2023-10-08T12:38:59;1.80;;;1.70;;
6269;SDS011;3168;51.684;6.954;2023-10-08T12:41:25;1.47;;;1.47;;
6269;SDS011;3168;51.684;6.954;2023-10-08T12:43:50;1.57;;;1.47;;
6269;SDS011;3168;51.684;6.954;2023-10-08T12:46:18;1.23;;;1.23;;
6269;SDS011;3168;51.684;6.954;2023-10-08T12:48:45;7.50;;;2.07;;
6269;SDS011;3168;51.684;6.954;2023-10-08T12:51:11;2.13;;;2.03;;
6269;SDS011;3168;51.684;6.954;2023-10-08T12:53:36;2.27;;;2.03;;
6269;SDS011;3168;51.684;6.954;2023-10-08T12:56:03;5.80;;;2.13;;
6269;SDS011;3168;51.684;6.954;2023-10-08T12:58:29;2.17;;;2.07;;
6269;SDS011;3168;51.684;6.954;2023-10-08T13:00:55;3.20;;;2.70;;
6269;SDS011;3168;51.684;6.954;2023-10-08T13:03:22;3.03;;;1.80;;
6269;SDS011;3168;51.684;6.954;2023-10-08T13:05:47;2.17;;;1.93;;
6269;SDS011;3168;51.684;6.954;2023-10-08T13:08:13;3.90;;;2.13;;
6269;SDS011;3168;51.684;6.954;2023-10-08T13:10:39;1.70;;;1.60;;
6269;SDS011;3168;51.684;6.954;2023-10-08T13:13:05;3.60;;;1.73;;
6269;SDS011;3168;51.684;6.954;2023-10-08T13:15:31;1.57;;;1.57;;
6269;SDS011;3168;51.684;6.954;2023-10-08T13:17:56;1.47;;;1.43;;
6269;SDS011;3168;51.684;6.954;2023-10-08T13:20:22;1.60;;;1.50;;
6269;SDS011;3168;51.684;6.954;2023-10-08T13:22:48;1.00;;;1.00;;
6269;SDS011;3168;51.684;6.954;2023-10-08T13:25:14;1.20;;;1.10;;
6269;SDS011;3168;51.684;6.954;2023-10-08T13:27:40;1.43;;;1.33;;
6269;SDS011;3168;51.684;6.954;2023-10-08T13:30:06;3.70;;;1.50;;
6269;SDS011;3168;51.684;6.954;2023-10-08T13:32:32;3.03;;;1.70;;
6269;SDS011;3168;51.684;6.954;2023-10-08T13:34:58;3.20;;;1.10;;
6269;SDS011;3168;51.684;6.954;2023-10-08T13:37:24;3.03;;;1.07;;
6269;SDS011;3168;51.684;6.954;2023-10-08T13:39:50;1.70;;;0.87;;
6269;SDS011;3168;51.684;6.954;2023-10-08T13:42:16;1.37;;;1.27;;
6269;SDS011;3168;51.684;6.954;2023-10-08T13:44:41;0.80;;;0.80;;
6269;SDS011;3168;51.684;6.954;2023-10-08T13:47:07;0.83;;;0.83;;
6269;SDS011;3168;51.684;6.954;2023-10-08T13:49:33;0.83;;;0.83;;
6269;SDS011;3168;51.684;6.954;2023-10-08T13:51:59;1.60;;;1.03;;
6269;SDS011;3168;51.684;6.954;2023-10-08T13:54:25;2.60;;;1.10;;
6269;SDS011;3168;51.684;6.954;2023-10-08T13:56:51;7.30;;;1.37;;
6269;SDS011;3168;51.684;6.954;2023-10-08T13:59:17;3.90;;;0.93;;
6269;SDS011;3168;51.684;6.954;2023-10-08T14:01:43;1.00;;;1.00;;
6269;SDS011;3168;51.684;6.954;2023-10-08T14:04:09;1.90;;;0.70;;
6269;SDS011;3168;51.684;6.954;2023-10-08T14:06:35;0.70;;;0.70;;
6269;SDS011;3168;51.684;6.954;2023-10-08T14:09:01;0.87;;;0.87;;
6269;SDS011;3168;51.684;6.954;2023-10-08T14:11:27;1.37;;;1.00;;
6269;SDS011;3168;51.684;6.954;2023-10-08T14:13:54;5.90;;;1.43;;
6269;SDS011;3168;51.684;6.954;2023-10-08T14:16:19;2.93;;;0.83;;
6269;SDS011;3168;51.684;6.954;2023-10-08T14:18:45;1.90;;;0.90;;
6269;SDS011;3168;51.684;6.954;2023-10-08T14:21:11;1.63;;;1.07;;
6269;SDS011;3168;51.684;6.954;2023-10-08T14:23:37;1.53;;;0.93;;
6269;SDS011;3168;51.684;6.954;2023-10-08T14:26:07;5.30;;;1.47;;
6269;SDS011;3168;51.684;6.954;2023-10-08T14:28:31;1.70;;;1.20;;
6269;SDS011;3168;51.684;6.954;2023-10-08T14:31:04;1.37;;;1.27;;
6269;SDS011;3168;51.684;6.954;2023-10-08T14:33:30;4.30;;;1.20;;
6269;SDS011;3168;51.684;6.954;2023-10-08T14:35:55;6.30;;;1.43;;
6269;SDS011;3168;51.684;6.954;2023-10-08T14:38:27;3.33;;;1.40;;
6269;SDS011;3168;51.684;6.954;2023-10-08T14:40:59;1.13;;;1.03;;
6269;SDS011;3168;51.684;6.954;2023-10-08T14:43:31;2.30;;;1.30;;
6269;SDS011;3168;51.684;6.954;2023-10-08T14:45:57;3.33;;;1.30;;
6269;SDS011;3168;51.684;6.954;2023-10-08T14:48:23;0.80;;;0.80;;
6269;SDS011;3168;51.684;6.954;2023-10-08T14:50:49;1.57;;;1.40;;
6269;SDS011;3168;51.684;6.954;2023-10-08T14:53:15;1.10;;;1.00;;
6269;SDS011;3168;51.684;6.954;2023-10-08T14:55:41;1.17;;;1.07;;
6269;SDS011;3168;51.684;6.954;2023-10-08T14:58:08;6.53;;;1.00;;
6269;SDS011;3168;51.684;6.954;2023-10-08T15:00:33;0.70;;;0.70;;
6269;SDS011;3168;51.684;6.954;2023-10-08T15:03:00;1.13;;;1.13;;
6269;SDS011;3168;51.684;6.954;2023-10-08T15:05:25;0.70;;;0.70;;
6269;SDS011;3168;51.684;6.954;2023-10-08T15:07:52;2.63;;;1.17;;
6269;SDS011;3168;51.684;6.954;2023-10-08T15:10:18;1.00;;;1.00;;
6269;SDS011;3168;51.684;6.954;2023-10-08T15:12:44;4.23;;;1.37;;
6269;SDS011;3168;51.684;6.954;2023-10-08T15:15:10;1.07;;;0.83;;
6269;SDS011;3168;51.684;6.954;2023-10-08T15:17:40;1.10;;;1.07;;
6269;SDS011;3168;51.684;6.954;2023-10-08T15:20:05;1.30;;;1.20;;
6269;SDS011;3168;51.684;6.954;2023-10-08T15:22:32;1.47;;;1.37;;
6269;SDS011;3168;51.684;6.954;2023-10-08T15:24:57;2.10;;;1.63;;